Airfield :
LOGIN :

Register | Disclaimer

   EN    FR    IT 

 










Legend :    VFR   Marginal VFR   IFR   Intensive IFR   Very Intensive IFR
Visi :
Ceiling :
>= 8 km
>= 3000ft
5 to 8 km
1000 to 3000 ft
1500m to 5 km
500 to 1000 ft
800 to 1500m
200 to 500 ft
< 800m
< 200 ft
Symbols :   Thunderstorms  Fog  Heavy snow  Heavy precipitations  Wind > 20 kt
SIGMETs :     Misc.  Thunderstorms  Icing  Turbulence  Mountain Waves  Volcanic Ashes







- Airport Elevation : 1036 ft
- IATA code : ERF


EDDE - Erfurt

CURRENT METAR :
  • 232350Z 20008KT 9999 FEW030 SCT040 BKN050 11/08 Q1011

EXPIRED METARs :
  • 232320Z 21012KT 9999 FEW030 BKN040 12/08 Q1011
  • 232250Z 22014KT 9999 FEW030 SCT050 BKN066 12/08 Q1010
  • 232220Z 21011KT 9999 -RA FEW046 SCT050 BKN060 12/08 Q1010
  • 232150Z 21010KT CAVOK 12/07 Q1010
  • 232120Z 22013KT 9999 FEW020 BKN060 12/07 Q1010

TAF TAF EDDE
Valid from the 24 at 00:00 until the 25 at 00:00 UTC


232300Z 2400/2424 20010G20KT 9999 BKN035
PROB30
TEMPO 2400/2405 22015G25KT SHRA SCT020TCU
BECMG 2405/2408 22015G25KT
PROB30
TEMPO 2408/2415 22020G30KT
BECMG 2415/2418 26008KT
TEMPO 2418/2424 BKN013
No reported NOTAMs for that airfield.



MET'MAP, your aeronautical weather chart ! - Copyright ORBIFLY December 2007 - Disclaimer

ORBIFLY MET'MAP TEAM :

Programming & Development : Alexandra Zaïnal
Concept & Development : Baudouin d'Aumeries
Co-Development & Prog : Marc-Olivier Méhu
Technical & hardware support : Manuel Goepfert

Contact : metmap@orbifly.com




SOURCES & CREDITS :

   NOAA